sensor_id;sensor_type;location;lat;lon;timestamp;P1;durP1;ratioP1;P2;durP2;ratioP2
71236;SDS011;58984;51.960;5.582;2022-08-20T00:02:23;11.20;;;6.85;;
71236;SDS011;58984;51.960;5.582;2022-08-20T00:04:49;12.45;;;8.00;;
71236;SDS011;58984;51.960;5.582;2022-08-20T00:07:15;13.80;;;7.25;;
71236;SDS011;58984;51.960;5.582;2022-08-20T00:09:42;11.77;;;7.40;;
71236;SDS011;58984;51.960;5.582;2022-08-20T00:12:09;11.48;;;7.88;;
71236;SDS011;58984;51.960;5.582;2022-08-20T00:14:36;18.13;;;10.60;;
71236;SDS011;58984;51.960;5.582;2022-08-20T00:17:03;13.70;;;9.20;;
71236;SDS011;58984;51.960;5.582;2022-08-20T00:19:29;17.45;;;9.63;;
71236;SDS011;58984;51.960;5.582;2022-08-20T00:21:55;16.13;;;9.98;;
71236;SDS011;58984;51.960;5.582;2022-08-20T00:24:21;17.75;;;9.57;;
71236;SDS011;58984;51.960;5.582;2022-08-20T00:26:47;12.10;;;7.97;;
71236;SDS011;58984;51.960;5.582;2022-08-20T00:29:13;15.63;;;9.05;;
71236;SDS011;58984;51.960;5.582;2022-08-20T00:31:39;12.43;;;8.73;;
71236;SDS011;58984;51.960;5.582;2022-08-20T00:34:05;13.30;;;7.93;;
71236;SDS011;58984;51.960;5.582;2022-08-20T00:36:31;15.13;;;8.30;;
71236;SDS011;58984;51.960;5.582;2022-08-20T00:38:56;11.35;;;7.72;;
71236;SDS011;58984;51.960;5.582;2022-08-20T00:41:23;11.93;;;7.70;;
71236;SDS011;58984;51.960;5.582;2022-08-20T00:46:31;12.90;;;7.75;;
71236;SDS011;58984;51.960;5.582;2022-08-20T00:48:57;14.57;;;8.20;;
71236;SDS011;58984;51.960;5.582;2022-08-20T00:51:33;13.75;;;7.43;;
71236;SDS011;58984;51.960;5.582;2022-08-20T00:56:39;11.05;;;7.28;;
71236;SDS011;58984;51.960;5.582;2022-08-20T00:59:08;11.77;;;7.15;;
71236;SDS011;58984;51.960;5.582;2022-08-20T01:01:39;10.32;;;6.30;;
71236;SDS011;58984;51.960;5.582;2022-08-20T01:04:07;13.55;;;7.40;;
71236;SDS011;58984;51.960;5.582;2022-08-20T01:06:34;10.95;;;6.80;;
71236;SDS011;58984;51.960;5.582;2022-08-20T01:09:04;11.35;;;6.55;;
71236;SDS011;58984;51.960;5.582;2022-08-20T01:11:30;11.02;;;6.13;;
71236;SDS011;58984;51.960;5.582;2022-08-20T01:13:58;12.45;;;7.60;;
71236;SDS011;58984;51.960;5.582;2022-08-20T01:16:26;9.52;;;6.90;;
71236;SDS011;58984;51.960;5.582;2022-08-20T01:18:55;11.65;;;6.75;;
71236;SDS011;58984;51.960;5.582;2022-08-20T01:21:24;11.68;;;6.72;;
71236;SDS011;58984;51.960;5.582;2022-08-20T01:24:03;13.15;;;7.10;;
71236;SDS011;58984;51.960;5.582;2022-08-20T01:26:42;11.52;;;7.35;;
71236;SDS011;58984;51.960;5.582;2022-08-20T01:29:20;11.60;;;6.30;;
71236;SDS011;58984;51.960;5.582;2022-08-20T01:31:49;14.25;;;7.72;;
71236;SDS011;58984;51.960;5.582;2022-08-20T01:34:16;14.45;;;7.70;;
71236;SDS011;58984;51.960;5.582;2022-08-20T01:39:13;9.73;;;6.38;;
71236;SDS011;58984;51.960;5.582;2022-08-20T01:44:13;16.25;;;7.82;;
71236;SDS011;58984;51.960;5.582;2022-08-20T01:46:41;16.30;;;8.70;;
71236;SDS011;58984;51.960;5.582;2022-08-20T01:49:19;14.25;;;7.75;;
71236;SDS011;58984;51.960;5.582;2022-08-20T01:51:53;17.25;;;8.43;;
71236;SDS011;58984;51.960;5.582;2022-08-20T01:54:21;15.25;;;8.63;;
71236;SDS011;58984;51.960;5.582;2022-08-20T01:56:56;15.18;;;7.80;;
71236;SDS011;58984;51.960;5.582;2022-08-20T01:59:24;13.00;;;7.68;;
71236;SDS011;58984;51.960;5.582;2022-08-20T02:01:50;11.82;;;8.05;;
71236;SDS011;58984;51.960;5.582;2022-08-20T02:04:17;15.55;;;8.73;;
71236;SDS011;58984;51.960;5.582;2022-08-20T02:06:48;12.35;;;7.50;;
71236;SDS011;58984;51.960;5.582;2022-08-20T02:09:19;12.25;;;7.75;;
71236;SDS011;58984;51.960;5.582;2022-08-20T02:11:45;13.55;;;7.97;;
71236;SDS011;58984;51.960;5.582;2022-08-20T02:14:11;18.83;;;9.27;;
71236;SDS011;58984;51.960;5.582;2022-08-20T02:16:41;13.38;;;7.70;;
71236;SDS011;58984;51.960;5.582;2022-08-20T02:21:37;14.35;;;7.43;;
71236;SDS011;58984;51.960;5.582;2022-08-20T02:24:07;12.07;;;7.95;;
71236;SDS011;58984;51.960;5.582;2022-08-20T02:26:34;13.50;;;7.75;;
71236;SDS011;58984;51.960;5.582;2022-08-20T02:29:02;14.20;;;8.60;;
71236;SDS011;58984;51.960;5.582;2022-08-20T02:31:33;12.90;;;8.10;;
71236;SDS011;58984;51.960;5.582;2022-08-20T02:34:00;9.90;;;6.68;;
71236;SDS011;58984;51.960;5.582;2022-08-20T02:36:27;11.80;;;7.32;;
71236;SDS011;58984;51.960;5.582;2022-08-20T02:38:53;15.13;;;8.57;;
71236;SDS011;58984;51.960;5.582;2022-08-20T02:41:18;13.98;;;8.40;;
71236;SDS011;58984;51.960;5.582;2022-08-20T02:43:46;13.68;;;7.80;;
71236;SDS011;58984;51.960;5.582;2022-08-20T02:46:12;12.98;;;7.90;;
71236;SDS011;58984;51.960;5.582;2022-08-20T02:48:39;14.27;;;8.50;;
71236;SDS011;58984;51.960;5.582;2022-08-20T02:51:06;13.93;;;8.27;;
71236;SDS011;58984;51.960;5.582;2022-08-20T02:53:34;14.40;;;8.30;;
71236;SDS011;58984;51.960;5.582;2022-08-20T02:56:03;15.35;;;9.30;;
71236;SDS011;58984;51.960;5.582;2022-08-20T02:58:29;15.93;;;8.77;;
71236;SDS011;58984;51.960;5.582;2022-08-20T03:00:55;13.50;;;8.10;;
71236;SDS011;58984;51.960;5.582;2022-08-20T03:03:21;17.45;;;8.52;;
71236;SDS011;58984;51.960;5.582;2022-08-20T03:05:49;19.25;;;8.73;;
71236;SDS011;58984;51.960;5.582;2022-08-20T03:08:16;11.73;;;8.13;;
71236;SDS011;58984;51.960;5.582;2022-08-20T03:10:43;13.40;;;7.93;;
71236;SDS011;58984;51.960;5.582;2022-08-20T03:13:10;15.35;;;8.73;;
71236;SDS011;58984;51.960;5.582;2022-08-20T03:15:37;14.13;;;8.23;;
71236;SDS011;58984;51.960;5.582;2022-08-20T03:18:05;13.13;;;7.85;;
71236;SDS011;58984;51.960;5.582;2022-08-20T03:20:31;14.98;;;8.32;;
71236;SDS011;58984;51.960;5.582;2022-08-20T03:22:57;15.02;;;8.85;;
71236;SDS011;58984;51.960;5.582;2022-08-20T03:25:22;15.52;;;8.35;;
71236;SDS011;58984;51.960;5.582;2022-08-20T03:27:49;17.50;;;9.50;;
71236;SDS011;58984;51.960;5.582;2022-08-20T03:30:15;14.93;;;8.70;;
71236;SDS011;58984;51.960;5.582;2022-08-20T03:32:42;13.30;;;8.05;;
71236;SDS011;58984;51.960;5.582;2022-08-20T03:35:09;14.50;;;8.52;;
71236;SDS011;58984;51.960;5.582;2022-08-20T03:37:37;17.73;;;8.48;;
71236;SDS011;58984;51.960;5.582;2022-08-20T03:40:05;14.98;;;8.05;;
71236;SDS011;58984;51.960;5.582;2022-08-20T03:42:33;13.10;;;8.35;;
71236;SDS011;58984;51.960;5.582;2022-08-20T03:44:59;13.70;;;7.82;;
71236;SDS011;58984;51.960;5.582;2022-08-20T03:47:25;14.77;;;8.38;;
71236;SDS011;58984;51.960;5.582;2022-08-20T03:49:51;14.02;;;8.25;;
71236;SDS011;58984;51.960;5.582;2022-08-20T03:52:21;13.50;;;7.90;;
71236;SDS011;58984;51.960;5.582;2022-08-20T03:54:47;13.75;;;7.93;;
71236;SDS011;58984;51.960;5.582;2022-08-20T03:57:14;12.35;;;7.72;;
71236;SDS011;58984;51.960;5.582;2022-08-20T03:59:41;10.73;;;7.03;;
71236;SDS011;58984;51.960;5.582;2022-08-20T04:02:08;13.15;;;7.20;;
71236;SDS011;58984;51.960;5.582;2022-08-20T04:04:35;14.52;;;7.15;;
71236;SDS011;58984;51.960;5.582;2022-08-20T04:07:07;11.32;;;6.63;;
71236;SDS011;58984;51.960;5.582;2022-08-20T04:09:42;11.10;;;6.82;;
71236;SDS011;58984;51.960;5.582;2022-08-20T04:12:08;12.45;;;6.78;;
71236;SDS011;58984;51.960;5.582;2022-08-20T04:14:37;13.75;;;6.60;;
71236;SDS011;58984;51.960;5.582;2022-08-20T04:17:05;10.60;;;6.22;;
71236;SDS011;58984;51.960;5.582;2022-08-20T04:19:32;9.65;;;5.70;;
71236;SDS011;58984;51.960;5.582;2022-08-20T04:21:59;10.57;;;5.38;;
71236;SDS011;58984;51.960;5.582;2022-08-20T04:24:25;10.55;;;5.40;;
71236;SDS011;58984;51.960;5.582;2022-08-20T04:26:51;7.20;;;4.75;;
71236;SDS011;58984;51.960;5.582;2022-08-20T04:29:19;7.97;;;5.00;;
71236;SDS011;58984;51.960;5.582;2022-08-20T04:31:45;8.35;;;4.63;;
71236;SDS011;58984;51.960;5.582;2022-08-20T04:34:11;7.78;;;5.00;;
71236;SDS011;58984;51.960;5.582;2022-08-20T04:36:37;6.80;;;4.47;;
71236;SDS011;58984;51.960;5.582;2022-08-20T04:39:04;9.35;;;5.15;;
71236;SDS011;58984;51.960;5.582;2022-08-20T04:41:33;7.35;;;5.00;;
71236;SDS011;58984;51.960;5.582;2022-08-20T04:43:58;8.07;;;4.30;;
71236;SDS011;58984;51.960;5.582;2022-08-20T04:46:25;7.40;;;4.85;;
71236;SDS011;58984;51.960;5.582;2022-08-20T04:48:52;6.70;;;4.25;;
71236;SDS011;58984;51.960;5.582;2022-08-20T04:51:19;9.07;;;5.05;;
71236;SDS011;58984;51.960;5.582;2022-08-20T04:53:45;8.35;;;4.70;;
71236;SDS011;58984;51.960;5.582;2022-08-20T04:56:11;10.40;;;4.70;;
71236;SDS011;58984;51.960;5.582;2022-08-20T04:58:38;8.65;;;5.10;;
71236;SDS011;58984;51.960;5.582;2022-08-20T05:01:06;6.43;;;4.40;;
71236;SDS011;58984;51.960;5.582;2022-08-20T05:03:34;6.40;;;4.20;;
71236;SDS011;58984;51.960;5.582;2022-08-20T05:06:06;7.07;;;4.57;;
71236;SDS011;58984;51.960;5.582;2022-08-20T05:08:32;8.23;;;4.70;;
71236;SDS011;58984;51.960;5.582;2022-08-20T05:11:00;9.25;;;4.78;;
71236;SDS011;58984;51.960;5.582;2022-08-20T05:13:26;10.98;;;4.82;;
71236;SDS011;58984;51.960;5.582;2022-08-20T05:15:52;8.13;;;4.45;;
71236;SDS011;58984;51.960;5.582;2022-08-20T05:18:19;7.60;;;4.75;;
71236;SDS011;58984;51.960;5.582;2022-08-20T05:20:47;9.43;;;4.38;;
71236;SDS011;58984;51.960;5.582;2022-08-20T05:23:14;8.00;;;4.85;;
71236;SDS011;58984;51.960;5.582;2022-08-20T05:25:41;11.75;;;4.38;;
71236;SDS011;58984;51.960;5.582;2022-08-20T05:28:15;7.78;;;4.85;;
71236;SDS011;58984;51.960;5.582;2022-08-20T05:30:44;7.97;;;4.78;;
71236;SDS011;58984;51.960;5.582;2022-08-20T05:33:11;8.43;;;4.60;;
71236;SDS011;58984;51.960;5.582;2022-08-20T05:35:39;9.52;;;4.72;;
71236;SDS011;58984;51.960;5.582;2022-08-20T05:38:09;7.97;;;4.95;;
71236;SDS011;58984;51.960;5.582;2022-08-20T05:40:37;11.00;;;4.70;;
71236;SDS011;58984;51.960;5.582;2022-08-20T05:43:04;7.80;;;4.95;;
71236;SDS011;58984;51.960;5.582;2022-08-20T05:45:31;5.32;;;4.30;;
71236;SDS011;58984;51.960;5.582;2022-08-20T05:47:58;8.60;;;4.88;;
71236;SDS011;58984;51.960;5.582;2022-08-20T05:50:27;6.43;;;4.55;;
71236;SDS011;58984;51.960;5.582;2022-08-20T05:52:53;8.85;;;4.88;;
71236;SDS011;58984;51.960;5.582;2022-08-20T05:55:20;7.32;;;4.78;;
71236;SDS011;58984;51.960;5.582;2022-08-20T05:57:48;10.80;;;5.15;;
71236;SDS011;58984;51.960;5.582;2022-08-20T06:00:14;9.38;;;4.85;;
71236;SDS011;58984;51.960;5.582;2022-08-20T06:02:40;9.60;;;4.82;;
71236;SDS011;58984;51.960;5.582;2022-08-20T06:05:24;7.82;;;5.05;;
71236;SDS011;58984;51.960;5.582;2022-08-20T06:07:51;8.00;;;5.00;;
71236;SDS011;58984;51.960;5.582;2022-08-20T06:10:17;9.75;;;5.32;;
71236;SDS011;58984;51.960;5.582;2022-08-20T06:12:43;7.32;;;5.18;;
71236;SDS011;58984;51.960;5.582;2022-08-20T06:15:09;7.57;;;5.25;;
71236;SDS011;58984;51.960;5.582;2022-08-20T06:17:36;7.88;;;5.13;;
71236;SDS011;58984;51.960;5.582;2022-08-20T06:20:04;7.18;;;5.13;;
71236;SDS011;58984;51.960;5.582;2022-08-20T06:22:32;7.93;;;5.50;;
71236;SDS011;58984;51.960;5.582;2022-08-20T06:24:58;8.43;;;5.00;;
71236;SDS011;58984;51.960;5.582;2022-08-20T06:27:24;7.80;;;5.38;;
71236;SDS011;58984;51.960;5.582;2022-08-20T06:29:50;9.88;;;6.05;;
71236;SDS011;58984;51.960;5.582;2022-08-20T06:32:17;7.88;;;5.40;;
71236;SDS011;58984;51.960;5.582;2022-08-20T06:34:44;6.95;;;4.97;;
71236;SDS011;58984;51.960;5.582;2022-08-20T06:37:24;7.93;;;5.90;;
71236;SDS011;58984;51.960;5.582;2022-08-20T06:39:51;8.90;;;5.53;;
71236;SDS011;58984;51.960;5.582;2022-08-20T06:42:17;10.20;;;6.25;;
71236;SDS011;58984;51.960;5.582;2022-08-20T06:44:44;11.02;;;5.88;;
71236;SDS011;58984;51.960;5.582;2022-08-20T06:47:14;11.07;;;6.00;;
71236;SDS011;58984;51.960;5.582;2022-08-20T06:49:43;7.57;;;5.57;;
71236;SDS011;58984;51.960;5.582;2022-08-20T06:52:10;9.07;;;5.82;;
71236;SDS011;58984;51.960;5.582;2022-08-20T06:54:35;13.02;;;5.65;;
71236;SDS011;58984;51.960;5.582;2022-08-20T06:57:02;9.10;;;5.68;;
71236;SDS011;58984;51.960;5.582;2022-08-20T06:59:29;9.38;;;5.72;;
71236;SDS011;58984;51.960;5.582;2022-08-20T07:01:55;7.05;;;5.20;;
71236;SDS011;58984;51.960;5.582;2022-08-20T07:04:24;5.75;;;4.68;;
71236;SDS011;58984;51.960;5.582;2022-08-20T07:06:54;9.20;;;4.88;;
71236;SDS011;58984;51.960;5.582;2022-08-20T07:09:22;6.65;;;4.30;;
71236;SDS011;58984;51.960;5.582;2022-08-20T07:11:49;11.57;;;5.38;;
71236;SDS011;58984;51.960;5.582;2022-08-20T07:14:16;5.97;;;4.47;;
71236;SDS011;58984;51.960;5.582;2022-08-20T07:16:42;6.03;;;4.82;;
71236;SDS011;58984;51.960;5.582;2022-08-20T07:19:08;7.28;;;4.25;;
71236;SDS011;58984;51.960;5.582;2022-08-20T07:21:34;5.25;;;4.28;;
71236;SDS011;58984;51.960;5.582;2022-08-20T07:24:00;11.05;;;4.70;;
71236;SDS011;58984;51.960;5.582;2022-08-20T07:26:26;8.48;;;4.07;;
71236;SDS011;58984;51.960;5.582;2022-08-20T07:28:52;7.30;;;4.00;;
71236;SDS011;58984;51.960;5.582;2022-08-20T07:31:18;6.90;;;4.28;;
71236;SDS011;58984;51.960;5.582;2022-08-20T07:34:03;14.20;;;8.20;;
71236;SDS011;58984;51.960;5.582;2022-08-20T07:36:29;14.23;;;6.80;;
71236;SDS011;58984;51.960;5.582;2022-08-20T07:38:55;12.10;;;6.47;;
71236;SDS011;58984;51.960;5.582;2022-08-20T07:41:22;12.27;;;5.45;;
71236;SDS011;58984;51.960;5.582;2022-08-20T07:43:48;6.68;;;4.53;;
71236;SDS011;58984;51.960;5.582;2022-08-20T07:46:15;8.55;;;4.55;;
71236;SDS011;58984;51.960;5.582;2022-08-20T07:48:44;7.65;;;5.03;;
71236;SDS011;58984;51.960;5.582;2022-08-20T07:51:11;6.93;;;4.53;;
71236;SDS011;58984;51.960;5.582;2022-08-20T07:53:41;6.63;;;4.05;;
71236;SDS011;58984;51.960;5.582;2022-08-20T07:56:07;8.32;;;4.20;;
71236;SDS011;58984;51.960;5.582;2022-08-20T07:58:36;6.20;;;3.95;;
71236;SDS011;58984;51.960;5.582;2022-08-20T08:01:04;5.65;;;3.88;;
71236;SDS011;58984;51.960;5.582;2022-08-20T08:03:31;5.80;;;3.55;;
71236;SDS011;58984;51.960;5.582;2022-08-20T08:05:58;6.93;;;3.78;;
71236;SDS011;58984;51.960;5.582;2022-08-20T08:08:24;5.63;;;3.15;;
71236;SDS011;58984;51.960;5.582;2022-08-20T08:10:54;5.05;;;3.33;;
71236;SDS011;58984;51.960;5.582;2022-08-20T08:13:23;4.90;;;3.50;;
71236;SDS011;58984;51.960;5.582;2022-08-20T08:15:51;4.43;;;3.67;;
71236;SDS011;58984;51.960;5.582;2022-08-20T08:18:24;4.13;;;3.22;;
71236;SDS011;58984;51.960;5.582;2022-08-20T08:20:52;4.45;;;3.20;;
71236;SDS011;58984;51.960;5.582;2022-08-20T08:23:19;5.93;;;3.17;;
71236;SDS011;58984;51.960;5.582;2022-08-20T08:25:46;4.93;;;3.50;;
71236;SDS011;58984;51.960;5.582;2022-08-20T08:28:15;6.63;;;3.58;;
71236;SDS011;58984;51.960;5.582;2022-08-20T08:30:41;4.53;;;3.35;;
71236;SDS011;58984;51.960;5.582;2022-08-20T08:33:27;9.13;;;3.80;;
71236;SDS011;58984;51.960;5.582;2022-08-20T08:35:58;3.60;;;3.00;;
71236;SDS011;58984;51.960;5.582;2022-08-20T08:38:33;4.88;;;3.17;;
71236;SDS011;58984;51.960;5.582;2022-08-20T08:43:58;5.45;;;3.42;;
71236;SDS011;58984;51.960;5.582;2022-08-20T08:46:40;4.10;;;3.08;;
71236;SDS011;58984;51.960;5.582;2022-08-20T08:49:12;4.90;;;3.17;;
71236;SDS011;58984;51.960;5.582;2022-08-20T08:52:02;5.83;;;3.20;;
71236;SDS011;58984;51.960;5.582;2022-08-20T08:54:32;7.68;;;3.60;;
71236;SDS011;58984;51.960;5.582;2022-08-20T08:56:59;6.03;;;3.20;;
71236;SDS011;58984;51.960;5.582;2022-08-20T08:59:29;5.75;;;3.20;;
71236;SDS011;58984;51.960;5.582;2022-08-20T09:01:56;4.53;;;2.67;;
71236;SDS011;58984;51.960;5.582;2022-08-20T09:04:28;5.05;;;3.15;;
71236;SDS011;58984;51.960;5.582;2022-08-20T09:07:03;5.93;;;3.38;;
71236;SDS011;58984;51.960;5.582;2022-08-20T09:09:35;5.03;;;2.97;;
71236;SDS011;58984;51.960;5.582;2022-08-20T09:12:07;6.45;;;3.55;;
71236;SDS011;58984;51.960;5.582;2022-08-20T09:14:35;8.85;;;3.10;;
71236;SDS011;58984;51.960;5.582;2022-08-20T09:17:02;5.00;;;2.80;;
71236;SDS011;58984;51.960;5.582;2022-08-20T09:19:28;6.18;;;3.17;;
71236;SDS011;58984;51.960;5.582;2022-08-20T09:21:55;4.25;;;2.78;;
71236;SDS011;58984;51.960;5.582;2022-08-20T09:24:20;6.78;;;3.00;;
71236;SDS011;58984;51.960;5.582;2022-08-20T09:26:46;3.00;;;2.67;;
71236;SDS011;58984;51.960;5.582;2022-08-20T09:29:11;4.63;;;2.90;;
71236;SDS011;58984;51.960;5.582;2022-08-20T09:31:37;4.65;;;2.47;;
71236;SDS011;58984;51.960;5.582;2022-08-20T09:34:03;4.30;;;2.58;;
71236;SDS011;58984;51.960;5.582;2022-08-20T09:36:29;5.07;;;2.55;;
71236;SDS011;58984;51.960;5.582;2022-08-20T09:38:54;4.95;;;2.72;;
71236;SDS011;58984;51.960;5.582;2022-08-20T09:41:20;3.40;;;2.35;;
71236;SDS011;58984;51.960;5.582;2022-08-20T09:43:46;7.30;;;2.80;;
71236;SDS011;58984;51.960;5.582;2022-08-20T09:46:11;3.78;;;2.53;;
71236;SDS011;58984;51.960;5.582;2022-08-20T09:48:37;4.88;;;2.72;;
71236;SDS011;58984;51.960;5.582;2022-08-20T09:51:03;4.75;;;2.50;;
71236;SDS011;58984;51.960;5.582;2022-08-20T09:53:28;8.27;;;2.85;;
71236;SDS011;58984;51.960;5.582;2022-08-20T09:55:55;3.08;;;2.45;;
71236;SDS011;58984;51.960;5.582;2022-08-20T09:58:23;4.30;;;2.67;;
71236;SDS011;58984;51.960;5.582;2022-08-20T10:00:58;7.15;;;2.85;;
71236;SDS011;58984;51.960;5.582;2022-08-20T10:03:27;3.92;;;2.63;;
71236;SDS011;58984;51.960;5.582;2022-08-20T10:05:53;3.13;;;2.30;;
71236;SDS011;58984;51.960;5.582;2022-08-20T10:08:18;5.03;;;2.47;;
71236;SDS011;58984;51.960;5.582;2022-08-20T10:10:44;5.10;;;2.42;;
71236;SDS011;58984;51.960;5.582;2022-08-20T10:13:09;4.50;;;2.30;;
71236;SDS011;58984;51.960;5.582;2022-08-20T10:15:35;3.75;;;2.40;;
71236;SDS011;58984;51.960;5.582;2022-08-20T10:18:01;5.15;;;2.42;;
71236;SDS011;58984;51.960;5.582;2022-08-20T10:20:29;4.72;;;2.35;;
71236;SDS011;58984;51.960;5.582;2022-08-20T10:22:55;4.78;;;2.22;;
71236;SDS011;58984;51.960;5.582;2022-08-20T10:25:21;2.92;;;2.20;;
71236;SDS011;58984;51.960;5.582;2022-08-20T10:27:46;5.18;;;2.47;;
71236;SDS011;58984;51.960;5.582;2022-08-20T10:30:12;3.70;;;2.30;;
71236;SDS011;58984;51.960;5.582;2022-08-20T10:32:38;4.60;;;2.33;;
71236;SDS011;58984;51.960;5.582;2022-08-20T10:35:04;4.13;;;2.72;;
71236;SDS011;58984;51.960;5.582;2022-08-20T10:37:29;4.82;;;2.25;;
71236;SDS011;58984;51.960;5.582;2022-08-20T10:39:55;4.13;;;2.20;;
71236;SDS011;58984;51.960;5.582;2022-08-20T10:42:21;4.55;;;2.33;;
71236;SDS011;58984;51.960;5.582;2022-08-20T10:44:47;4.28;;;2.38;;
71236;SDS011;58984;51.960;5.582;2022-08-20T10:47:18;3.58;;;2.55;;
71236;SDS011;58984;51.960;5.582;2022-08-20T10:49:49;4.00;;;2.15;;
71236;SDS011;58984;51.960;5.582;2022-08-20T10:52:16;3.50;;;2.10;;
71236;SDS011;58984;51.960;5.582;2022-08-20T10:54:42;2.85;;;2.33;;
71236;SDS011;58984;51.960;5.582;2022-08-20T10:57:08;3.88;;;1.88;;
71236;SDS011;58984;51.960;5.582;2022-08-20T10:59:38;4.65;;;2.10;;
71236;SDS011;58984;51.960;5.582;2022-08-20T11:02:08;2.90;;;2.10;;
71236;SDS011;58984;51.960;5.582;2022-08-20T11:04:34;3.83;;;2.00;;
71236;SDS011;58984;51.960;5.582;2022-08-20T11:09:41;3.72;;;1.85;;
71236;SDS011;58984;51.960;5.582;2022-08-20T11:12:07;4.28;;;2.10;;
71236;SDS011;58984;51.960;5.582;2022-08-20T11:14:32;4.75;;;2.20;;
71236;SDS011;58984;51.960;5.582;2022-08-20T11:16:58;3.80;;;2.10;;
71236;SDS011;58984;51.960;5.582;2022-08-20T11:19:25;4.50;;;1.92;;
71236;SDS011;58984;51.960;5.582;2022-08-20T11:21:50;2.08;;;1.90;;
71236;SDS011;58984;51.960;5.582;2022-08-20T11:24:16;2.75;;;2.00;;
71236;SDS011;58984;51.960;5.582;2022-08-20T11:26:42;3.80;;;2.25;;
71236;SDS011;58984;51.960;5.582;2022-08-20T11:29:11;3.15;;;2.00;;
71236;SDS011;58984;51.960;5.582;2022-08-20T11:31:37;3.65;;;1.85;;
71236;SDS011;58984;51.960;5.582;2022-08-20T11:34:02;4.22;;;1.90;;
71236;SDS011;58984;51.960;5.582;2022-08-20T11:36:28;2.75;;;2.10;;
71236;SDS011;58984;51.960;5.582;2022-08-20T11:38:54;3.25;;;1.98;;
71236;SDS011;58984;51.960;5.582;2022-08-20T11:41:19;2.95;;;1.85;;
71236;SDS011;58984;51.960;5.582;2022-08-20T11:43:45;2.65;;;2.03;;
71236;SDS011;58984;51.960;5.582;2022-08-20T11:46:10;3.25;;;2.08;;
71236;SDS011;58984;51.960;5.582;2022-08-20T11:48:36;10.95;;;3.65;;
71236;SDS011;58984;51.960;5.582;2022-08-20T11:51:02;6.20;;;3.20;;
71236;SDS011;58984;51.960;5.582;2022-08-20T11:53:27;8.15;;;3.10;;
71236;SDS011;58984;51.960;5.582;2022-08-20T11:55:53;6.53;;;2.97;;
71236;SDS011;58984;51.960;5.582;2022-08-20T11:58:19;5.10;;;2.90;;
71236;SDS011;58984;51.960;5.582;2022-08-20T12:00:44;5.88;;;2.90;;
71236;SDS011;58984;51.960;5.582;2022-08-20T12:03:10;4.22;;;2.97;;
71236;SDS011;58984;51.960;5.582;2022-08-20T12:05:36;7.70;;;2.72;;
71236;SDS011;58984;51.960;5.582;2022-08-20T12:08:02;6.10;;;2.63;;
71236;SDS011;58984;51.960;5.582;2022-08-20T12:10:29;5.30;;;2.65;;
71236;SDS011;58984;51.960;5.582;2022-08-20T12:12:55;5.82;;;2.95;;
71236;SDS011;58984;51.960;5.582;2022-08-20T12:15:21;3.17;;;2.30;;
71236;SDS011;58984;51.960;5.582;2022-08-20T12:17:48;5.55;;;2.70;;
71236;SDS011;58984;51.960;5.582;2022-08-20T12:20:13;4.32;;;2.55;;
71236;SDS011;58984;51.960;5.582;2022-08-20T12:22:39;2.63;;;2.30;;
71236;SDS011;58984;51.960;5.582;2022-08-20T12:25:06;5.30;;;2.72;;
71236;SDS011;58984;51.960;5.582;2022-08-20T12:27:33;5.07;;;2.33;;
71236;SDS011;58984;51.960;5.582;2022-08-20T12:30:03;8.02;;;2.92;;
71236;SDS011;58984;51.960;5.582;2022-08-20T12:32:31;3.78;;;2.42;;
71236;SDS011;58984;51.960;5.582;2022-08-20T12:34:57;4.47;;;2.55;;
71236;SDS011;58984;51.960;5.582;2022-08-20T12:37:24;4.45;;;2.63;;
71236;SDS011;58984;51.960;5.582;2022-08-20T12:39:52;3.13;;;2.70;;
71236;SDS011;58984;51.960;5.582;2022-08-20T12:42:19;3.97;;;2.75;;
71236;SDS011;58984;51.960;5.582;2022-08-20T12:44:45;3.75;;;2.70;;
71236;SDS011;58984;51.960;5.582;2022-08-20T12:47:16;4.13;;;2.47;;
71236;SDS011;58984;51.960;5.582;2022-08-20T12:49:45;4.28;;;2.22;;
71236;SDS011;58984;51.960;5.582;2022-08-20T12:52:13;6.63;;;2.80;;
71236;SDS011;58984;51.960;5.582;2022-08-20T12:54:40;4.05;;;2.53;;
71236;SDS011;58984;51.960;5.582;2022-08-20T12:57:06;5.43;;;2.92;;
71236;SDS011;58984;51.960;5.582;2022-08-20T12:59:46;3.15;;;2.15;;
71236;SDS011;58984;51.960;5.582;2022-08-20T13:02:12;6.35;;;2.28;;
71236;SDS011;58984;51.960;5.582;2022-08-20T13:04:37;5.00;;;2.55;;
71236;SDS011;58984;51.960;5.582;2022-08-20T13:07:03;2.95;;;2.33;;
71236;SDS011;58984;51.960;5.582;2022-08-20T13:09:29;5.60;;;2.70;;
71236;SDS011;58984;51.960;5.582;2022-08-20T13:11:56;5.13;;;2.63;;
71236;SDS011;58984;51.960;5.582;2022-08-20T13:14:22;2.92;;;2.50;;
71236;SDS011;58984;51.960;5.582;2022-08-20T13:16:53;3.50;;;2.47;;
71236;SDS011;58984;51.960;5.582;2022-08-20T13:19:20;4.22;;;2.75;;
71236;SDS011;58984;51.960;5.582;2022-08-20T13:21:46;4.60;;;2.60;;
71236;SDS011;58984;51.960;5.582;2022-08-20T13:24:11;4.70;;;2.80;;
71236;SDS011;58984;51.960;5.582;2022-08-20T13:26:37;5.65;;;2.88;;
71236;SDS011;58984;51.960;5.582;2022-08-20T13:29:02;4.13;;;2.92;;
71236;SDS011;58984;51.960;5.582;2022-08-20T13:31:28;7.03;;;3.00;;
71236;SDS011;58984;51.960;5.582;2022-08-20T13:33:54;5.13;;;2.65;;
71236;SDS011;58984;51.960;5.582;2022-08-20T13:36:19;4.25;;;2.83;;
71236;SDS011;58984;51.960;5.582;2022-08-20T13:38:45;4.53;;;3.10;;
71236;SDS011;58984;51.960;5.582;2022-08-20T13:41:10;6.00;;;2.92;;
71236;SDS011;58984;51.960;5.582;2022-08-20T13:43:36;5.28;;;2.92;;
71236;SDS011;58984;51.960;5.582;2022-08-20T13:46:01;5.35;;;2.70;;
71236;SDS011;58984;51.960;5.582;2022-08-20T13:48:28;3.97;;;2.75;;
71236;SDS011;58984;51.960;5.582;2022-08-20T13:50:54;4.20;;;2.60;;
71236;SDS011;58984;51.960;5.582;2022-08-20T13:53:20;5.95;;;3.00;;
71236;SDS011;58984;51.960;5.582;2022-08-20T13:55:45;5.85;;;2.38;;
71236;SDS011;58984;51.960;5.582;2022-08-20T13:58:11;6.30;;;2.85;;
71236;SDS011;58984;51.960;5.582;2022-08-20T14:00:37;4.45;;;2.60;;
71236;SDS011;58984;51.960;5.582;2022-08-20T14:03:03;4.05;;;2.80;;
71236;SDS011;58984;51.960;5.582;2022-08-20T14:05:30;6.63;;;3.00;;
71236;SDS011;58984;51.960;5.582;2022-08-20T14:08:20;5.28;;;2.65;;
71236;SDS011;58984;51.960;5.582;2022-08-20T14:10:44;5.38;;;2.60;;
71236;SDS011;58984;51.960;5.582;2022-08-20T14:13:14;6.53;;;2.70;;
71236;SDS011;58984;51.960;5.582;2022-08-20T14:15:44;4.88;;;2.63;;
71236;SDS011;58984;51.960;5.582;2022-08-20T14:18:10;3.97;;;2.60;;
71236;SDS011;58984;51.960;5.582;2022-08-20T14:20:36;2.60;;;2.28;;
71236;SDS011;58984;51.960;5.582;2022-08-20T14:23:02;3.53;;;2.40;;
71236;SDS011;58984;51.960;5.582;2022-08-20T14:25:29;5.18;;;2.38;;
71236;SDS011;58984;51.960;5.582;2022-08-20T14:27:55;4.70;;;2.45;;
71236;SDS011;58984;51.960;5.582;2022-08-20T14:30:23;4.97;;;2.63;;
71236;SDS011;58984;51.960;5.582;2022-08-20T14:32:52;5.72;;;2.63;;
71236;SDS011;58984;51.960;5.582;2022-08-20T14:35:19;5.70;;;2.63;;
71236;SDS011;58984;51.960;5.582;2022-08-20T14:37:46;5.25;;;2.72;;
71236;SDS011;58984;51.960;5.582;2022-08-20T14:40:15;3.40;;;2.58;;
71236;SDS011;58984;51.960;5.582;2022-08-20T14:42:42;3.17;;;2.15;;
71236;SDS011;58984;51.960;5.582;2022-08-20T14:45:09;5.22;;;2.70;;
71236;SDS011;58984;51.960;5.582;2022-08-20T14:47:40;4.90;;;2.55;;
71236;SDS011;58984;51.960;5.582;2022-08-20T14:50:10;4.13;;;2.17;;
71236;SDS011;58984;51.960;5.582;2022-08-20T14:52:38;4.10;;;2.60;;
71236;SDS011;58984;51.960;5.582;2022-08-20T14:55:06;4.38;;;2.20;;
71236;SDS011;58984;51.960;5.582;2022-08-20T14:57:33;4.07;;;2.50;;
71236;SDS011;58984;51.960;5.582;2022-08-20T14:59:59;5.28;;;2.47;;
71236;SDS011;58984;51.960;5.582;2022-08-20T15:02:25;4.47;;;2.30;;
71236;SDS011;58984;51.960;5.582;2022-08-20T15:04:51;3.15;;;2.22;;